Aérodrome :
LOGIN :

S'inscrire | Disclaimer

   EN    FR    IT 

 










Légende :    VFR   VFR Marginal   IFR   IFR Intensif   IFR Très Intensif
Visi : 
Plafond : 
>= 8 km
>= 3000ft
5 à 8 km
1000 à 3000 ft
1500m à 5 km
500 à 1000 ft
800 à 1500m
200 à 500 ft
< 800m
< 200 ft
Symboles :   Orages  Brouillard  Fortes neiges  Fortes précipitations  Vent > 20 kt
SIGMETs :   Divers  Orages  Givrage  Turbulence  Onde Orograph.  Cendres Volcan.







- Altitude de l'aérodrome : 1058 ft
- Code IATA : SCN


EDDR - Saarbrücken

DERNIER METAR :
  • 142220Z AUTO 21012KT 9999 // BKN008/// BKN014/// 03/02 Q0992

METARs EXPIRÉS :
  • 142150Z 21010KT 9999 FEW007 BKN013 03/02 Q0992
  • 142120Z 21011KT 9999 FEW007 BKN010 03/02 Q0992 NOSIG
  • 142050Z 21012KT 9999 -RA FEW007 BKN009 03/02 Q0993 NOSIG
  • 142020Z 21012KT 9999 BKN008 BKN028 03/02 Q0993 NOSIG
  • 141950Z 21010KT 9999 FEW005 BKN007 03/02 Q0993 NOSIG

TAF TAF EDDR
Valide du 14 à 18h jusqu'au 15 à 18h UTC


141700Z 1418/1518 22010KT 9999 SCT007 BKN015
TEMPO 1418/1424 4500 SHRA BKN005 BKN010CB
TEMPO 1500/1505 4000 -SHRASN BKN005 BKN010CB
TEMPO 1505/1510 2500 SHRASN BKN004 BKN010CB
PROB30
TEMPO 1510/1518 4000 -SHRASN BKN010CB
BECMG 1514/1516 23005KT
Pas de NOTAMs connus pour ce terrain.



MET'MAP, la Météo Aéronautique d'un coup d'oeil ! - Copyright ORBIFLY Décembre 2007 - Disclaimer

ORBIFLY MET'MAP TEAM :

Programmation & Développement : Alexandra Zaïnal
Conception & Développement : Baudouin d'Aumeries
Co-Programmation & Développement : Marc-Olivier Méhu
Soutien technique & logistique : Manuel Goepfert

Contact : metmap@orbifly.com




SOURCES & CREDITS :

   NOAA